Northsea Beta — 9HA2594 — position and weather

sailwx.info

Track history (hours):
 
Tides and Currents Weather Stations Pressure Air Temp Water Temp Dewpoint Dewpoint Depression Visibility Wind Speed Wind Dir Waves Ship Positions

Northsea Beta

Last reported at 2016-Sep-30 06:32 UTC. Time now 2016-Sep-30 08:23 UTC.
Position N 39°22' W 010°12'.

Length 110 m; draft 5.7 m.

Type: Tanker. MMSI: 248970000.

Date/timePositionNaut miles runAvg speedWind from/ knotsBaromVisibWave heightAir tempDewpointWater temp
2016-Sep-30 06:32N 39°22' W 010°12'48011.4
2016-Sep-28 12:19N 47°05' W 007°19'9510.5
2016-Sep-28 03:14N 48°28' W 006°10'710.1
2016-Sep-28 02:34N 48°34' W 006°05'11 9.7
2016-Sep-28 01:24N 48°44' W 005°57'22 9.6
2016-Sep-27 23:07N 49°01' W 005°35'4211.6
2016-Sep-27 19:29N 49°22' W 004°39'60 9.8
2016-Sep-27 13:20N 49°52' W 003°19'13610.7
2016-Sep-27 00:34N 50°32' E 000°05'4911.3
2016-Sep-26 20:13N 50°56' E 001°12'710.2
2016-Sep-26 19:34N 51°01' E 001°20'24 6.0
2016-Sep-26 15:33N 51°25' E 001°23'0 0.0
2016-Sep-26 13:34N 51°25' E 001°23'0 0.0
2016-Sep-26 11:34N 51°25' E 001°23'0 0.0
2016-Sep-26 08:33N 51°25' E 001°23'0 0.0
2016-Sep-26 02:34N 51°25' E 001°23'0 0.0
2016-Sep-26 01:32N 51°25' E 001°23'0 0.0
2016-Sep-26 00:33N 51°25' E 001°23'0 0.0
2016-Sep-25 21:33N 51°25' E 001°23'0 0.0
2016-Sep-25 17:34N 51°25' E 001°23'0 0.0
2016-Sep-25 16:33N 51°25' E 001°23'0 0.1
2016-Sep-25 15:33N 51°25' E 001°23'0 0.1
2016-Sep-25 14:33N 51°25' E 001°23'0 0.0
2016-Sep-25 12:33N 51°25' E 001°23'0 0.0
2016-Sep-25 11:33N 51°25' E 001°23'0 0.0
2016-Sep-25 10:33N 51°25' E 001°23'0 0.0
2016-Sep-25 09:33N 51°25' E 001°23'0 0.0
2016-Sep-25 07:33N 51°25' E 001°23'0 0.0
2016-Sep-25 04:33N 51°25' E 001°23'0 0.0
2016-Sep-25 00:33N 51°25' E 001°23'0 0.0
2016-Sep-24 22:33N 51°25' E 001°23'0 0.0
2016-Sep-24 21:33N 51°25' E 001°23'0 0.0
2016-Sep-24 19:33N 51°25' E 001°23'0 0.1
2016-Sep-24 18:33N 51°25' E 001°23'0 0.1
2016-Sep-24 17:33N 51°25' E 001°23'0 0.0
2016-Sep-24 16:33N 51°25' E 001°23'0 0.0
2016-Sep-24 14:33N 51°25' E 001°23'0 0.0
2016-Sep-24 12:31N 51°25' E 001°23'0 0.0
2016-Sep-24 10:33N 51°25' E 001°23'0 0.0
2016-Sep-24 09:33N 51°25' E 001°23'0 0.0
2016-Sep-24 03:34N 51°25' E 001°23'0 0.0
2016-Sep-24 02:34N 51°25' E 001°23'0 0.0
2016-Sep-24 01:34N 51°25' E 001°23'0 0.1
2016-Sep-24 00:34N 51°25' E 001°23'0 0.0
2016-Sep-23 19:33N 51°25' E 001°23'0 0.0
2016-Sep-23 17:34N 51°25' E 001°23'0 0.1
2016-Sep-23 16:33N 51°25' E 001°23'0 0.0
2016-Sep-23 15:34N 51°25' E 001°23'0 0.0
2016-Sep-23 13:34N 51°25' E 001°23'0 0.0
2016-Sep-23 09:33N 51°25' E 001°23'0 0.0
2016-Sep-23 06:33N 51°25' E 001°23'0 0.1
2016-Sep-23 04:33N 51°25' E 001°23'0 0.0
2016-Sep-23 03:33N 51°25' E 001°23'0 0.0
2016-Sep-23 02:33N 51°25' E 001°23'0 0.0
2016-Sep-23 01:33N 51°25' E 001°23'0 0.1
2016-Sep-23 00:33N 51°25' E 001°23'0 0.1
2016-Sep-22 23:33N 51°25' E 001°23'0 0.0
2016-Sep-22 20:34N 51°25' E 001°23'0 0.0
2016-Sep-22 12:32N 51°25' E 001°23'0 0.0
2016-Sep-22 04:33N 51°25' E 001°23'0 0.1
2016-Sep-22 03:33N 51°25' E 001°23'0 0.0
2016-Sep-22 00:33N 51°25' E 001°23'0 0.0
2016-Sep-21 23:33N 51°25' E 001°23'0 0.0
2016-Sep-21 22:33N 51°25' E 001°23'0 0.0
2016-Sep-21 19:33N 51°25' E 001°23'0 0.0
2016-Sep-21 16:33N 51°25' E 001°23'0 0.0
2016-Sep-21 09:33N 51°25' E 001°23'0 0.1
2016-Sep-21 08:33N 51°25' E 001°23'0 0.0
2016-Sep-21 05:33N 51°25' E 001°23'0 0.1
2016-Sep-21 03:33N 51°25' E 001°23'0 0.0
2016-Sep-21 02:33N 51°25' E 001°23'0 0.0
2016-Sep-20 17:33N 51°25' E 001°23'0 0.1
2016-Sep-20 14:33N 51°25' E 001°23'0 0.0
2016-Sep-20 13:33N 51°25' E 001°23'4 1.4
2016-Sep-20 10:33N 51°28' E 001°20'2210.8
2016-Sep-20 08:34N 51°29' E 000°45'1211.8
2016-Sep-20 07:33N 51°27' E 000°27'7 6.5
2016-Sep-20 06:33N 51°28' E 000°16'  
Track history (hours):
 
Tides and Currents Weather Stations Pressure Air Temp Water Temp Dewpoint Dewpoint Depression Visibility Wind Speed Wind Dir Waves Ship Positions

Northsea Beta

Last reported at 2016-Sep-30 06:32 UTC. Time now 2016-Sep-30 08:23 UTC.
Position N 39°22' W 010°12'.

Length 110 m; draft 5.7 m.

Type: Tanker. MMSI: 248970000.

Date/timePositionNaut miles runAvg speedWind from/ knotsBaromVisibWave heightAir tempDewpointWater temp
2016-Sep-30 06:32N 39°22' W 010°12'48011.4
2016-Sep-28 12:19N 47°05' W 007°19'9510.5
2016-Sep-28 03:14N 48°28' W 006°10'710.1
2016-Sep-28 02:34N 48°34' W 006°05'11 9.7
2016-Sep-28 01:24N 48°44' W 005°57'22 9.6
2016-Sep-27 23:07N 49°01' W 005°35'4211.6
2016-Sep-27 19:29N 49°22' W 004°39'60 9.8
2016-Sep-27 13:20N 49°52' W 003°19'13610.7
2016-Sep-27 00:34N 50°32' E 000°05'4911.3
2016-Sep-26 20:13N 50°56' E 001°12'710.2
2016-Sep-26 19:34N 51°01' E 001°20'24 6.0
2016-Sep-26 15:33N 51°25' E 001°23'0 0.0
2016-Sep-26 13:34N 51°25' E 001°23'0 0.0
2016-Sep-26 11:34N 51°25' E 001°23'0 0.0
2016-Sep-26 08:33N 51°25' E 001°23'0 0.0
2016-Sep-26 02:34N 51°25' E 001°23'0 0.0
2016-Sep-26 01:32N 51°25' E 001°23'0 0.0
2016-Sep-26 00:33N 51°25' E 001°23'0 0.0
2016-Sep-25 21:33N 51°25' E 001°23'0 0.0
2016-Sep-25 17:34N 51°25' E 001°23'0 0.0
2016-Sep-25 16:33N 51°25' E 001°23'0 0.1
2016-Sep-25 15:33N 51°25' E 001°23'0 0.1
2016-Sep-25 14:33N 51°25' E 001°23'0 0.0
2016-Sep-25 12:33N 51°25' E 001°23'0 0.0
2016-Sep-25 11:33N 51°25' E 001°23'0 0.0
2016-Sep-25 10:33N 51°25' E 001°23'0 0.0
2016-Sep-25 09:33N 51°25' E 001°23'0 0.0
2016-Sep-25 07:33N 51°25' E 001°23'0 0.0
2016-Sep-25 04:33N 51°25' E 001°23'0 0.0
2016-Sep-25 00:33N 51°25' E 001°23'0 0.0
2016-Sep-24 22:33N 51°25' E 001°23'0 0.0
2016-Sep-24 21:33N 51°25' E 001°23'0 0.0
2016-Sep-24 19:33N 51°25' E 001°23'0 0.1
2016-Sep-24 18:33N 51°25' E 001°23'0 0.1
2016-Sep-24 17:33N 51°25' E 001°23'0 0.0
2016-Sep-24 16:33N 51°25' E 001°23'0 0.0
2016-Sep-24 14:33N 51°25' E 001°23'0 0.0
2016-Sep-24 12:31N 51°25' E 001°23'0 0.0
2016-Sep-24 10:33N 51°25' E 001°23'0 0.0
2016-Sep-24 09:33N 51°25' E 001°23'0 0.0
2016-Sep-24 03:34N 51°25' E 001°23'0 0.0
2016-Sep-24 02:34N 51°25' E 001°23'0 0.0
2016-Sep-24 01:34N 51°25' E 001°23'0 0.1
2016-Sep-24 00:34N 51°25' E 001°23'0 0.0
2016-Sep-23 19:33N 51°25' E 001°23'0 0.0
2016-Sep-23 17:34N 51°25' E 001°23'0 0.1
2016-Sep-23 16:33N 51°25' E 001°23'0 0.0
2016-Sep-23 15:34N 51°25' E 001°23'0 0.0
2016-Sep-23 13:34N 51°25' E 001°23'0 0.0
2016-Sep-23 09:33N 51°25' E 001°23'0 0.0
2016-Sep-23 06:33N 51°25' E 001°23'0 0.1
2016-Sep-23 04:33N 51°25' E 001°23'0 0.0
2016-Sep-23 03:33N 51°25' E 001°23'0 0.0
2016-Sep-23 02:33N 51°25' E 001°23'0 0.0
2016-Sep-23 01:33N 51°25' E 001°23'0 0.1
2016-Sep-23 00:33N 51°25' E 001°23'0 0.1
2016-Sep-22 23:33N 51°25' E 001°23'0 0.0
2016-Sep-22 20:34N 51°25' E 001°23'0 0.0
2016-Sep-22 12:32N 51°25' E 001°23'0 0.0
2016-Sep-22 04:33N 51°25' E 001°23'0 0.1
2016-Sep-22 03:33N 51°25' E 001°23'0 0.0
2016-Sep-22 00:33N 51°25' E 001°23'0 0.0
2016-Sep-21 23:33N 51°25' E 001°23'0 0.0
2016-Sep-21 22:33N 51°25' E 001°23'0 0.0
2016-Sep-21 19:33N 51°25' E 001°23'0 0.0
2016-Sep-21 16:33N 51°25' E 001°23'0 0.0
2016-Sep-21 09:33N 51°25' E 001°23'0 0.1
2016-Sep-21 08:33N 51°25' E 001°23'0 0.0
2016-Sep-21 05:33N 51°25' E 001°23'0 0.1
2016-Sep-21 03:33N 51°25' E 001°23'0 0.0
2016-Sep-21 02:33N 51°25' E 001°23'0 0.0
2016-Sep-20 17:33N 51°25' E 001°23'0 0.1
2016-Sep-20 14:33N 51°25' E 001°23'0 0.0
2016-Sep-20 13:33N 51°25' E 001°23'4 1.4
2016-Sep-20 10:33N 51°28' E 001°20'2210.8
2016-Sep-20 08:34N 51°29' E 000°45'1211.8
2016-Sep-20 07:33N 51°27' E 000°27'7 6.5
2016-Sep-20 06:33N 51°28' E 000°16'  

Dump ship's entire track history